createdAt,value
2019-05-09T00:00:53.546Z,14.50
2019-05-09T00:03:24.111Z,12.30
2019-05-09T00:05:54.201Z,13.70
2019-05-09T00:08:23.375Z,11.70
2019-05-09T00:10:53.467Z,13.93
2019-05-09T00:13:23.721Z,16.57
2019-05-09T00:15:54.206Z,12.25
2019-05-09T00:18:23.366Z,15.23
2019-05-09T00:21:06.111Z,16.30
2019-05-09T00:23:34.794Z,10.10
2019-05-09T00:26:04.193Z,14.40
2019-05-09T00:28:36.082Z,16.10
2019-05-09T00:31:10.123Z,15.30
2019-05-09T00:33:39.103Z,11.28
2019-05-09T00:36:07.592Z,14.35
2019-05-09T00:38:40.517Z,11.05
2019-05-09T00:41:09.633Z,14.33
2019-05-09T00:43:39.081Z,11.88
2019-05-09T00:46:09.359Z,17.00
2019-05-09T00:48:55.007Z,17.00
2019-05-09T00:51:23.784Z,14.83
2019-05-09T00:53:53.652Z,17.30
2019-05-09T00:56:23.935Z,16.70
2019-05-09T00:58:53.563Z,16.30
2019-05-09T01:01:23.984Z,18.15
2019-05-09T01:03:53.674Z,20.68
2019-05-09T01:06:23.986Z,18.02
2019-05-09T01:08:53.709Z,16.87
2019-05-09T01:11:24.253Z,18.23
2019-05-09T01:13:54.374Z,17.32
2019-05-09T01:16:24.089Z,14.70
2019-05-09T01:18:54.622Z,16.17
2019-05-09T01:21:24.106Z,13.55
2019-05-09T01:23:53.935Z,19.05
2019-05-09T01:26:23.975Z,15.75
2019-05-09T01:28:54.073Z,11.35
2019-05-09T01:31:24.450Z,14.03
2019-05-09T01:34:00.485Z,11.70
2019-05-09T01:36:30.689Z,13.15
2019-05-09T01:38:59.449Z,9.75
2019-05-09T01:41:31.961Z,9.68
2019-05-09T01:43:59.777Z,13.00
2019-05-09T01:46:28.397Z,15.18
2019-05-09T01:48:57.348Z,12.07
2019-05-09T01:51:25.955Z,16.10
2019-05-09T01:53:55.014Z,11.00
2019-05-09T01:56:23.739Z,10.45
2019-05-09T01:58:53.819Z,11.68
2019-05-09T02:01:24.060Z,13.83
2019-05-09T02:03:53.667Z,9.13
2019-05-09T02:06:24.453Z,13.65
2019-05-09T02:08:54.538Z,12.65
2019-05-09T02:11:25.327Z,10.10
2019-05-09T02:13:54.105Z,11.18
2019-05-09T02:16:26.911Z,14.53
2019-05-09T02:18:59.909Z,13.05
2019-05-09T02:21:28.566Z,14.40
2019-05-09T02:23:57.465Z,13.10
2019-05-09T02:26:26.059Z,13.88
2019-05-09T02:28:54.586Z,12.18
2019-05-09T02:31:24.591Z,13.58
2019-05-09T02:33:54.325Z,13.55
2019-05-09T02:36:23.171Z,10.70
2019-05-09T02:38:52.222Z,9.30
2019-05-09T02:41:20.952Z,9.20
2019-05-09T02:43:49.963Z,9.93
2019-05-09T02:46:29.659Z,10.25
2019-05-09T02:48:59.405Z,10.88
2019-05-09T02:51:29.198Z,9.43
2019-05-09T02:53:58.767Z,8.98
2019-05-09T02:56:29.436Z,8.50
2019-05-09T02:59:02.908Z,14.07
2019-05-09T03:01:39.126Z,9.73
2019-05-09T03:04:08.469Z,9.03
2019-05-09T03:06:39.188Z,11.70
2019-05-09T03:09:08.916Z,13.18
2019-05-09T03:11:38.982Z,11.38
2019-05-09T03:14:09.064Z,8.43
2019-05-09T03:16:39.724Z,11.00
2019-05-09T03:19:09.281Z,9.70
2019-05-09T03:21:40.010Z,9.63
2019-05-09T03:24:09.833Z,8.53
2019-05-09T03:26:40.575Z,11.78
2019-05-09T03:29:13.679Z,10.75
2019-05-09T03:31:43.685Z,12.58
2019-05-09T03:34:12.302Z,9.55
2019-05-09T03:36:40.882Z,13.78
2019-05-09T03:39:09.790Z,11.15
2019-05-09T03:41:39.497Z,11.50
2019-05-09T03:44:08.397Z,13.55
2019-05-09T03:46:54.202Z,12.98
2019-05-09T03:49:24.325Z,12.23
2019-05-09T03:51:52.877Z,15.20
2019-05-09T03:54:21.522Z,14.03
2019-05-09T03:57:00.181Z,14.35
2019-05-09T03:59:29.033Z,13.68
2019-05-09T04:01:59.058Z,14.60
2019-05-09T04:04:28.178Z,14.65
2019-05-09T04:06:58.102Z,13.83
2019-05-09T04:09:27.612Z,14.38
2019-05-09T04:11:59.890Z,14.35
2019-05-09T04:14:28.509Z,14.93
2019-05-09T04:16:57.614Z,11.10
2019-05-09T04:19:27.604Z,16.95
2019-05-09T04:21:57.643Z,12.80
2019-05-09T04:24:28.077Z,10.30
2019-05-09T04:27:01.367Z,11.00
2019-05-09T04:29:29.896Z,11.85
2019-05-09T04:31:58.842Z,16.62
2019-05-09T04:34:27.700Z,9.65
2019-05-09T04:36:57.631Z,12.37
2019-05-09T04:39:28.212Z,15.13
2019-05-09T04:42:03.438Z,11.78
2019-05-09T04:44:32.642Z,10.73
2019-05-09T04:47:03.557Z,10.98
2019-05-09T04:49:39.281Z,14.47
2019-05-09T04:52:02.267Z,10.28
2019-05-09T04:54:30.735Z,9.60
2019-05-09T04:56:59.415Z,11.40
2019-05-09T04:59:28.455Z,11.97
2019-05-09T05:02:18.286Z,11.73
2019-05-09T05:04:47.937Z,9.68
2019-05-09T05:07:18.055Z,13.18
2019-05-09T05:09:48.356Z,13.68
2019-05-09T05:12:18.555Z,12.30
2019-05-09T05:14:47.645Z,12.68
2019-05-09T05:17:17.953Z,18.80
2019-05-09T05:19:47.649Z,12.95
2019-05-09T05:22:20.754Z,16.17
2019-05-09T05:24:51.032Z,14.78
2019-05-09T05:27:19.565Z,11.40
2019-05-09T05:29:48.196Z,10.80
2019-05-09T05:32:20.948Z,10.80
2019-05-09T05:35:00.378Z,10.63
2019-05-09T05:37:28.897Z,10.23
2019-05-09T05:39:58.282Z,12.78
2019-05-09T05:42:28.260Z,11.63
2019-05-09T05:44:58.252Z,13.22
2019-05-09T05:47:34.646Z,8.93
2019-05-09T05:50:05.355Z,11.03
2019-05-09T05:52:33.893Z,11.90
2019-05-09T05:55:02.572Z,14.43
2019-05-09T05:57:31.111Z,16.85
2019-05-09T05:59:59.899Z,15.68
2019-05-09T06:02:28.530Z,17.12
2019-05-09T06:04:58.054Z,16.55
2019-05-09T06:07:28.513Z,10.65
2019-05-09T06:09:57.677Z,13.70
2019-05-09T06:12:27.660Z,17.87
2019-05-09T06:14:58.283Z,14.98
2019-05-09T06:17:28.619Z,11.53
2019-05-09T06:19:59.201Z,15.72
2019-05-09T06:22:27.832Z,10.88
2019-05-09T06:24:58.292Z,13.13
2019-05-09T06:27:27.548Z,13.03
2019-05-09T06:29:58.453Z,14.10
2019-05-09T06:32:27.994Z,10.63
2019-05-09T06:34:57.882Z,13.70
2019-05-09T06:37:27.718Z,13.80
2019-05-09T06:39:58.295Z,11.88
2019-05-09T06:42:28.685Z,11.22
2019-05-09T06:45:18.034Z,12.10
2019-05-09T06:47:48.685Z,13.53
2019-05-09T06:50:20.577Z,13.45
2019-05-09T06:52:49.172Z,15.15
2019-05-09T06:55:17.774Z,9.55
2019-05-09T06:57:48.684Z,12.45
2019-05-09T07:00:21.480Z,13.62
2019-05-09T07:02:51.693Z,10.72
2019-05-09T07:05:21.813Z,15.65
2019-05-09T07:07:52.082Z,11.73
2019-05-09T07:10:20.856Z,10.75
2019-05-09T07:12:49.415Z,13.80
2019-05-09T07:15:18.318Z,12.95
2019-05-09T07:17:48.177Z,17.73
2019-05-09T07:20:18.236Z,12.37
2019-05-09T07:22:51.296Z,10.23
2019-05-09T07:25:21.483Z,14.00
2019-05-09T07:27:50.048Z,11.55
2019-05-09T07:30:23.464Z,12.30
2019-05-09T07:32:53.660Z,14.28
2019-05-09T07:35:22.130Z,11.30
2019-05-09T07:37:50.843Z,14.28
2019-05-09T07:40:19.623Z,8.30
2019-05-09T07:42:48.227Z,13.05
2019-05-09T07:45:17.958Z,13.08
2019-05-09T07:47:47.865Z,13.22
2019-05-09T07:50:18.940Z,12.33
2019-05-09T07:52:47.743Z,16.82
2019-05-09T07:55:18.106Z,15.10
2019-05-09T07:57:54.749Z,13.85
2019-05-09T08:00:27.732Z,15.85
2019-05-09T08:02:58.113Z,11.50
2019-05-09T08:05:31.378Z,17.70
2019-05-09T08:08:00.099Z,14.38
2019-05-09T08:10:32.951Z,14.10
2019-05-09T08:12:59.222Z,12.18
2019-05-09T08:15:28.224Z,18.20
2019-05-09T08:17:59.090Z,21.10
2019-05-09T08:20:27.981Z,17.30
2019-05-09T08:23:01.373Z,16.27
2019-05-09T08:25:27.904Z,16.93
2019-05-09T08:27:58.823Z,13.22
2019-05-09T08:30:35.599Z,24.10
2019-05-09T08:32:59.858Z,17.77
2019-05-09T08:35:28.185Z,13.88
2019-05-09T08:37:58.225Z,16.23
2019-05-09T08:40:28.306Z,18.48
2019-05-09T08:42:58.821Z,24.27
2019-05-09T08:45:31.291Z,21.05
2019-05-09T08:47:58.449Z,19.67
2019-05-09T08:50:44.047Z,20.08
2019-05-09T08:53:12.652Z,21.60
2019-05-09T08:55:41.280Z,22.35
2019-05-09T08:58:09.797Z,18.73
2019-05-09T09:00:39.224Z,15.18
2019-05-09T09:03:08.202Z,21.55
2019-05-09T09:05:38.239Z,15.55
2019-05-09T09:08:08.223Z,14.55
2019-05-09T09:10:38.510Z,18.10
2019-05-09T09:13:08.888Z,21.12
2019-05-09T09:16:02.446Z,22.75
2019-05-09T09:18:08.773Z,24.60
2019-05-09T09:20:38.283Z,21.75
2019-05-09T09:23:08.963Z,22.70
2019-05-09T09:25:38.918Z,21.00
2019-05-09T09:28:08.824Z,18.17
2019-05-09T09:30:39.023Z,20.68
2019-05-09T09:33:11.265Z,19.82
2019-05-09T09:35:38.496Z,20.02
2019-05-09T09:38:09.394Z,21.35
2019-05-09T09:40:38.728Z,29.77
2019-05-09T09:43:09.172Z,25.82
2019-05-09T09:45:38.013Z,21.68
2019-05-09T09:48:08.976Z,19.65
2019-05-09T09:50:38.419Z,21.23
2019-05-09T09:53:08.840Z,22.67
2019-05-09T09:55:38.403Z,19.80
2019-05-09T09:58:08.245Z,18.67
2019-05-09T10:00:49.526Z,20.12
2019-05-09T10:03:18.770Z,19.37
2019-05-09T10:05:48.587Z,24.65
2019-05-09T10:08:18.106Z,21.20
2019-05-09T10:10:48.419Z,28.87
2019-05-09T10:13:18.585Z,21.10
2019-05-09T10:15:49.077Z,24.85
2019-05-09T10:18:19.272Z,22.93
2019-05-09T10:20:55.764Z,26.27
2019-05-09T10:23:24.571Z,17.15
2019-05-09T10:25:53.174Z,16.60
2019-05-09T10:28:21.880Z,22.02
2019-05-09T10:30:50.852Z,19.45
2019-05-09T10:33:19.505Z,22.07
2019-05-09T10:35:48.062Z,20.00
2019-05-09T10:38:18.398Z,15.95
2019-05-09T10:40:48.521Z,17.60
2019-05-09T10:43:33.422Z,17.92
2019-05-09T10:46:19.294Z,17.37
2019-05-09T10:48:48.629Z,18.75
2019-05-09T10:51:18.588Z,12.53
2019-05-09T10:53:48.923Z,17.00
2019-05-09T10:56:18.671Z,18.10
2019-05-09T10:58:48.355Z,18.57
2019-05-09T11:01:18.584Z,24.18
2019-05-09T11:03:48.330Z,18.65
2019-05-09T11:06:18.478Z,21.25
2019-05-09T11:08:47.974Z,20.68
2019-05-09T11:11:18.373Z,19.57
2019-05-09T11:13:48.192Z,20.27
2019-05-09T11:16:18.260Z,16.62
2019-05-09T11:18:48.223Z,23.22
2019-05-09T11:21:19.165Z,16.62
2019-05-09T11:23:49.008Z,15.80
2019-05-09T11:26:18.159Z,19.82
2019-05-09T11:28:47.011Z,12.18
2019-05-09T11:31:18.530Z,16.25
2019-05-09T11:33:48.401Z,14.27
2019-05-09T11:36:20.729Z,17.77
2019-05-09T11:38:49.414Z,18.00
2019-05-09T11:41:19.223Z,12.23
2019-05-09T11:43:48.712Z,19.60
2019-05-09T11:46:18.189Z,10.13
2019-05-09T11:48:47.174Z,16.17
2019-05-09T11:51:20.437Z,11.93
2019-05-09T11:53:48.570Z,15.45
2019-05-09T11:56:18.055Z,13.75
2019-05-09T11:58:48.132Z,12.90
2019-05-09T12:01:19.367Z,11.68
2019-05-09T12:03:51.973Z,11.43
2019-05-09T12:06:20.070Z,14.85
2019-05-09T12:08:49.147Z,14.50
2019-05-09T12:11:18.590Z,12.18
2019-05-09T12:13:48.544Z,15.25
2019-05-09T12:16:18.462Z,11.78
2019-05-09T12:18:48.916Z,10.13
2019-05-09T12:21:19.085Z,12.55
2019-05-09T12:23:49.084Z,11.28
2019-05-09T12:26:18.408Z,12.65
2019-05-09T12:28:48.317Z,12.43
2019-05-09T12:31:18.390Z,17.90
2019-05-09T12:33:48.416Z,15.05
2019-05-09T12:36:19.053Z,16.42
2019-05-09T12:38:49.741Z,14.37
2019-05-09T12:41:19.332Z,15.20
2019-05-09T12:43:48.179Z,18.42
2019-05-09T12:46:17.076Z,15.13
2019-05-09T12:48:47.971Z,12.47
2019-05-09T12:51:18.425Z,13.28
2019-05-09T12:53:48.486Z,13.20
2019-05-09T12:56:18.719Z,15.83
2019-05-09T12:58:47.723Z,13.70
2019-05-09T13:01:18.842Z,9.85
2019-05-09T13:03:48.402Z,13.60
2019-05-09T13:06:20.222Z,10.90
2019-05-09T13:08:48.840Z,15.80
2019-05-09T13:11:18.794Z,15.28
2019-05-09T13:13:48.117Z,14.73
2019-05-09T13:16:44.254Z,16.35
2019-05-09T13:19:02.841Z,14.35
2019-05-09T13:21:32.827Z,12.37
2019-05-09T13:24:02.278Z,13.20
2019-05-09T13:26:31.223Z,16.80
2019-05-09T13:28:59.742Z,19.05
2019-05-09T13:31:29.668Z,18.00
2019-05-09T13:34:01.473Z,18.17
2019-05-09T13:39:04.599Z,21.07
2019-05-09T13:41:28.813Z,19.67
2019-05-09T13:44:03.657Z,18.23
2019-05-09T13:46:28.314Z,14.30
2019-05-09T13:49:11.029Z,16.75
2019-05-09T13:51:27.737Z,14.63
2019-05-09T13:53:59.129Z,19.45
2019-05-09T13:56:27.997Z,15.95
2019-05-09T13:58:58.165Z,13.18
2019-05-09T14:01:27.244Z,17.12
2019-05-09T14:03:57.696Z,14.18
2019-05-09T14:06:27.803Z,15.15
2019-05-09T14:08:59.448Z,14.60
2019-05-09T14:11:29.188Z,15.23
2019-05-09T14:13:57.679Z,18.20
2019-05-09T14:16:28.646Z,17.57
2019-05-09T14:19:00.569Z,14.45
2019-05-09T14:21:29.817Z,16.15
2019-05-09T14:24:10.802Z,13.03
2019-05-09T14:26:28.092Z,20.00
2019-05-09T14:28:58.255Z,17.57
2019-05-09T14:31:32.155Z,14.43
2019-05-09T14:33:57.422Z,11.22
2019-05-09T14:36:27.765Z,13.13
2019-05-09T14:38:58.008Z,19.62
2019-05-09T14:41:27.764Z,19.25
2019-05-09T14:43:56.591Z,17.55
2019-05-09T14:46:25.141Z,19.15
2019-05-09T14:48:53.681Z,20.25
2019-05-09T14:51:22.330Z,21.82
2019-05-09T14:53:50.938Z,18.62
2019-05-09T14:56:19.674Z,18.52
2019-05-09T14:58:48.647Z,19.90
2019-05-09T15:01:19.431Z,16.02
2019-05-09T15:03:48.532Z,20.00
2019-05-09T15:06:18.240Z,19.95
2019-05-09T15:08:48.245Z,19.45
2019-05-09T15:11:18.154Z,21.87
2019-05-09T15:13:47.692Z,17.45
2019-05-09T15:16:18.508Z,19.42
2019-05-09T15:18:48.684Z,18.50
2019-05-09T15:21:19.130Z,13.72
2019-05-09T15:23:48.169Z,16.57
2019-05-09T15:26:17.784Z,16.07
2019-05-09T15:28:48.366Z,15.15
2019-05-09T15:31:18.264Z,16.30
2019-05-09T15:33:48.649Z,14.98
2019-05-09T15:36:19.197Z,16.02
2019-05-09T15:38:48.606Z,17.62
2019-05-09T15:41:18.373Z,19.55
2019-05-09T15:43:48.555Z,15.55
2019-05-09T15:46:18.985Z,18.00
2019-05-09T15:48:47.917Z,16.32
2019-05-09T15:51:18.106Z,17.77
2019-05-09T15:53:48.655Z,17.95
2019-05-09T15:56:18.758Z,22.35
2019-05-09T15:58:49.084Z,16.50
2019-05-09T16:01:18.343Z,13.25
2019-05-09T16:03:48.581Z,16.87
2019-05-09T16:06:19.357Z,19.10
2019-05-09T16:08:47.649Z,14.93
2019-05-09T16:11:18.071Z,16.23
2019-05-09T16:13:48.048Z,18.37
2019-05-09T16:16:17.564Z,15.05
2019-05-09T16:18:48.690Z,16.85
2019-05-09T16:21:16.800Z,15.85
2019-05-09T16:23:45.265Z,20.30
2019-05-09T16:26:13.922Z,18.35
2019-05-09T16:28:42.482Z,21.37
2019-05-09T16:31:11.235Z,16.87
2019-05-09T16:33:40.069Z,25.90
2019-05-09T16:36:08.672Z,16.55
2019-05-09T16:38:43.432Z,15.18
2019-05-09T16:41:07.862Z,19.15
2019-05-09T16:43:38.598Z,20.95
2019-05-09T16:46:07.560Z,15.72
2019-05-09T16:48:36.270Z,18.45
2019-05-09T16:51:07.760Z,22.17
2019-05-09T16:53:35.225Z,18.17
2019-05-09T16:56:03.990Z,15.50
2019-05-09T16:58:32.497Z,22.62
2019-05-09T17:01:01.151Z,18.07
2019-05-09T17:03:29.791Z,18.67
2019-05-09T17:05:58.458Z,16.45
2019-05-09T17:08:28.276Z,21.55
2019-05-09T17:10:58.736Z,20.57
2019-05-09T17:13:28.919Z,21.52
2019-05-09T17:15:57.641Z,19.35
2019-05-09T17:18:28.409Z,16.87
2019-05-09T17:21:17.666Z,20.75
2019-05-09T17:23:38.486Z,19.35
2019-05-09T17:26:08.313Z,20.92
2019-05-09T17:28:37.652Z,21.73
2019-05-09T17:31:08.640Z,20.92
2019-05-09T17:33:37.947Z,19.95
2019-05-09T17:36:06.739Z,17.05
2019-05-09T17:38:35.433Z,19.92
2019-05-09T17:41:05.117Z,17.52
2019-05-09T17:43:33.720Z,20.77
2019-05-09T17:46:02.518Z,24.02
2019-05-09T17:48:31.129Z,18.65
2019-05-09T17:50:59.900Z,19.32
2019-05-09T17:53:31.252Z,16.17
2019-05-09T17:55:58.798Z,19.32
2019-05-09T17:58:32.970Z,18.73
2019-05-09T18:00:58.247Z,13.75
2019-05-09T18:03:29.076Z,13.68
2019-05-09T18:05:57.728Z,13.78
2019-05-09T18:08:28.344Z,19.90
2019-05-09T18:10:58.410Z,21.55
2019-05-09T18:13:29.609Z,15.83
2019-05-09T18:15:57.409Z,12.63
2019-05-09T18:18:28.413Z,15.28
2019-05-09T18:20:58.014Z,17.73
2019-05-09T18:23:28.413Z,16.52
2019-05-09T18:25:58.524Z,17.15
2019-05-09T18:28:29.315Z,17.27
2019-05-09T18:30:58.612Z,18.90
2019-05-09T18:33:29.155Z,15.35
2019-05-09T18:35:57.722Z,15.35
2019-05-09T18:38:29.613Z,18.92
2019-05-09T18:43:27.447Z,16.10
2019-05-09T18:45:57.769Z,12.40
2019-05-09T18:48:27.792Z,19.20
2019-05-09T18:50:57.208Z,15.48
2019-05-09T18:53:26.025Z,9.78
2019-05-09T18:55:54.595Z,15.43
2019-05-09T18:58:23.183Z,18.42
2019-05-09T19:00:52.380Z,14.53
2019-05-09T19:03:20.919Z,14.85
2019-05-09T19:05:49.610Z,17.12
2019-05-09T19:08:18.442Z,18.42
2019-05-09T19:10:47.416Z,20.08
2019-05-09T19:13:16.067Z,15.55
2019-05-09T19:15:46.576Z,14.63
2019-05-09T19:18:22.797Z,15.53
2019-05-09T19:20:56.241Z,16.37
2019-05-09T19:23:24.796Z,14.47
2019-05-09T19:25:53.319Z,18.30
2019-05-09T19:28:24.337Z,19.70
2019-05-09T19:30:52.355Z,16.82
2019-05-09T19:33:20.833Z,19.95
2019-05-09T19:35:49.583Z,21.52
2019-05-09T19:38:18.116Z,22.40
2019-05-09T19:40:46.709Z,23.05
2019-05-09T19:43:15.454Z,24.77
2019-05-09T19:45:43.907Z,24.32
2019-05-09T19:48:12.399Z,18.32
2019-05-09T19:50:41.233Z,19.20
2019-05-09T19:53:10.311Z,21.27
2019-05-09T19:55:38.910Z,23.47
2019-05-09T19:58:09.126Z,21.45
2019-05-09T20:00:37.897Z,18.87
2019-05-09T20:03:06.492Z,21.17
2019-05-09T20:05:35.300Z,22.40
2019-05-09T20:08:03.987Z,25.00
2019-05-09T20:10:50.564Z,24.40
2019-05-09T20:13:20.780Z,23.77
2019-05-09T20:15:49.327Z,22.73
2019-05-09T20:18:18.048Z,27.48
2019-05-09T20:20:46.601Z,23.10
2019-05-09T20:23:15.110Z,21.85
2019-05-09T20:25:44.047Z,26.50
2019-05-09T20:28:12.657Z,22.22
2019-05-09T20:30:41.367Z,18.30
2019-05-09T20:33:10.143Z,15.98
2019-05-09T20:35:38.696Z,16.95
2019-05-09T20:38:07.429Z,20.23
2019-05-09T20:40:36.588Z,22.00
2019-05-09T20:43:05.259Z,25.02
2019-05-09T20:45:33.936Z,23.90
2019-05-09T20:48:03.126Z,30.95
2019-05-09T20:50:31.825Z,28.47
2019-05-09T20:53:09.116Z,28.77
2019-05-09T20:55:30.886Z,27.22
2019-05-09T20:57:59.579Z,24.72
2019-05-09T21:00:28.887Z,34.75
2019-05-09T21:02:57.775Z,29.75
2019-05-09T21:05:26.508Z,39.08
2019-05-09T21:07:55.250Z,37.63
2019-05-09T21:10:24.352Z,35.00
2019-05-09T21:12:53.005Z,31.20
2019-05-09T21:15:21.670Z,35.30
2019-05-09T21:17:50.527Z,36.15
2019-05-09T21:20:19.491Z,37.58
2019-05-09T21:22:48.226Z,35.98
2019-05-09T21:25:17.303Z,32.80
2019-05-09T21:27:45.980Z,34.10
2019-05-09T21:30:18.372Z,34.03
2019-05-09T21:32:47.306Z,29.27
2019-05-09T21:35:15.870Z,30.55
2019-05-09T21:37:44.349Z,32.00
2019-05-09T21:40:13.775Z,32.35
2019-05-09T21:42:42.296Z,33.55
2019-05-09T21:45:11.092Z,34.08
2019-05-09T21:47:39.654Z,37.67
2019-05-09T21:50:08.556Z,30.32
2019-05-09T21:52:37.217Z,33.25
2019-05-09T21:55:06.177Z,33.00
2019-05-09T21:57:34.650Z,31.60
2019-05-09T22:00:05.159Z,38.73
2019-05-09T22:02:33.722Z,37.30
2019-05-09T22:05:02.817Z,40.45
2019-05-09T22:07:31.606Z,39.48
2019-05-09T22:10:00.304Z,42.67
2019-05-09T22:12:28.907Z,44.03
2019-05-09T22:14:57.455Z,40.15
2019-05-09T22:17:40.245Z,50.75
2019-05-09T22:20:10.762Z,45.35
2019-05-09T22:22:39.325Z,42.83
2019-05-09T22:25:09.942Z,38.23
2019-05-09T22:27:38.562Z,25.27
2019-05-09T22:30:09.500Z,29.57
2019-05-09T22:32:38.294Z,23.73
2019-05-09T22:35:07.720Z,24.15
2019-05-09T22:37:36.287Z,16.50
2019-05-09T22:40:09.886Z,14.38
2019-05-09T22:42:38.449Z,16.30
2019-05-09T22:45:08.373Z,16.50
2019-05-09T22:47:37.095Z,16.23
2019-05-09T22:50:06.310Z,10.15
2019-05-09T22:52:34.934Z,10.10
2019-05-09T22:55:04.172Z,11.33
2019-05-09T22:57:32.712Z,15.68
2019-05-09T23:00:01.695Z,15.60
2019-05-09T23:02:30.570Z,12.28
2019-05-09T23:04:59.109Z,18.02
2019-05-09T23:07:27.700Z,13.22
2019-05-09T23:09:56.548Z,13.20
2019-05-09T23:12:25.147Z,17.30
2019-05-09T23:14:53.737Z,17.02
2019-05-09T23:17:22.440Z,19.77
2019-05-09T23:19:50.967Z,18.95
2019-05-09T23:22:20.324Z,19.00
2019-05-09T23:24:49.077Z,18.15
2019-05-09T23:27:19.294Z,21.48
2019-05-09T23:29:47.776Z,19.23
2019-05-09T23:32:23.848Z,17.75
2019-05-09T23:34:52.330Z,18.48
2019-05-09T23:37:20.795Z,20.68
2019-05-09T23:39:52.267Z,21.48
2019-05-09T23:42:20.755Z,15.90
2019-05-09T23:44:49.310Z,18.57
2019-05-09T23:47:18.092Z,17.40
2019-05-09T23:49:46.635Z,19.10
2019-05-09T23:52:15.342Z,22.98
2019-05-09T23:55:03.903Z,15.72
2019-05-09T23:57:50.537Z,19.87
